• Join FlightAware (Why Join?)
  • Login
  • US Flag 
04:46AM EDT


 

Airport Tracker/Info


-or-


 

Live Flight TrackerFlight Track Log ✈ AFL150 ✈ 30-Jan-2014 ✈ UUEE / SVO - MUHA / HAV

Flight Track Log - Related Links

Times and Time Zones

All times are in EST time to prevent confusion due to time zone crossing. See the AFL150 flight status page for this flight to view local times or setup timezone preferences in your user account.

Time Position Orientation Groundspeed Altitude Reporting Facility
EST Latitude Longitude Course Direction KTS MPH feet Rate Location/Type
05:46AM 56.1859 37.0141 307° West  Level Estimated
05:47AM 56.2536 36.8491 306° West  Level Estimated
05:48AM 56.3211 36.6834 306° West  Level Estimated
05:49AM 56.3884 36.5171 306° West  Level Estimated
05:50AM 56.4555 36.3503 306° West  Level Estimated
05:51AM 56.5223 36.1828 306° West  Level Estimated
05:52AM 56.5889 36.0148 306° West  Level Estimated
05:53AM 56.6553 35.8462 306° West  Level Estimated
05:54AM 56.7214 35.6770 306° West  Level Estimated
05:55AM 56.7874 35.5072 305° West  Level Estimated
05:56AM 56.8531 35.3368 305° West  Level Estimated
05:57AM 56.9185 35.1657 305° West  Level Estimated
05:58AM 56.9837 34.9941 305° West  Level Estimated
05:59AM 57.0487 34.8219 305° West  Level Estimated
06:00AM 57.1135 34.6491 305° West  Level Estimated
06:01AM 57.1780 34.4757 305° West  Level Estimated
06:02AM 57.2422 34.3017 304° West  Level Estimated
06:03AM 57.3063 34.1271 304° West  Level Estimated
06:04AM 57.3701 33.9519 304° West  Level Estimated
06:05AM 57.4336 33.7760 304° West  Level Estimated
06:06AM 57.4961 33.6019 304° West  Level Estimated
06:07AM 57.5583 33.4271 304° West  Level Estimated
06:08AM 57.6203 33.2518 303° West  Level Estimated
06:09AM 57.6821 33.0759 303° West  Level Estimated
06:10AM 57.7436 32.8993 303° West  Level Estimated
06:11AM 57.8048 32.7222 303° West  Level Estimated
06:12AM 57.8658 32.5445 303° West  Level Estimated
06:12AM 56.4729 32.0885 303° West 466 536 36,000  Level FlightAware ADS-B (EVDA / DGP)
06:13AM 56.4907 31.8733 279° West 466 536 36,000  Level FlightAware ADS-B (EVDA / DGP)
06:14AM 56.5055 31.6899 278° West 465 535 36,000  Level FlightAware ADS-B (EVDA / DGP)
06:15AM 56.5272 31.4168 278° West 466 536 36,000  Level FlightAware ADS-B (EVDA / DGP)
06:16AM 56.5554 31.1867 283° West 466 536 36,000  Level FlightAware ADS-B (EVDA / DGP)
06:17AM 56.6105 30.9668 295° West 465 535 36,000  Level FlightAware ADS-B (EVDA / DGP)
06:18AM 56.6915 30.7708 307° West 463 533 36,000  Level FlightAware ADS-B (EVDA / DGP)
06:19AM 56.7640 30.5921 307° West 464 534 36,000  Level FlightAware ADS-B (EVDA / DGP)
06:20AM 56.8385 30.3961 305° West 466 536 36,000  Level FlightAware ADS-B (EVDA / DGP)
06:21AM 56.9106 30.2010 304° West 468 539 36,000  Level FlightAware ADS-B (EVDA / DGP)
06:22AM 56.9841 29.9995 304° West 468 539 36,000  Level FlightAware ADS-B (EVDA / DGP)
06:23AM 57.0562 29.8006 304° West 468 539 36,000  Level FlightAware ADS-B (EVDA / DGP)
06:24AM 57.1230 29.6143 304° West 469 540 36,000  Level FlightAware ADS-B (EVDA / DGP)
06:25AM 57.1980 29.4043 303° West 470 541 36,000  Level FlightAware ADS-B (EVDA / DGP)
06:26AM 57.2705 29.1987 303° West 471 542 36,000  Level FlightAware ADS-B (EVDA / DGP)
06:27AM 57.3408 28.9986 303° West 472 543 36,000  Level FlightAware ADS-B (EVDA / DGP)
06:28AM 57.4123 28.7931 303° West 472 543 36,000  Level FlightAware ADS-B (EVDA / DGP)
06:29AM 57.4810 28.5940 303° West 471 542 36,000  Level FlightAware ADS-B (EVDA / DGP)
06:30AM 57.5516 28.3877 303° West 470 541 36,000  Level FlightAware ADS-B (EVDA / DGP)
06:31AM 57.6065 28.1717 295° West 468 539 36,000  Level FlightAware ADS-B (EVDA / DGP)
06:32AM 57.6549 27.9468 292° West 468 539 36,000  Level FlightAware ADS-B (EVDA / DGP)
06:33AM 57.7015 27.7261 292° West 470 541 36,000  Level FlightAware ADS-B (EVDA / DGP)
06:34AM 57.7506 27.4918 292° West 472 543 36,000  Level FlightAware ADS-B (EVDA / DGP)
06:35AM 57.7964 27.2710 291° West 472 543 36,000  Level FlightAware ADS-B (EVDA / DGP)
06:36AM 57.8425 27.0461 291° West 470 541 36,000  Level FlightAware ADS-B (EVDA / DGP)
06:37AM 57.8895 26.8145 291° West 469 540 36,000  Level FlightAware ADS-B (EVDA / DGP)
06:38AM 57.9365 26.5797 291° West 470 541 36,000  Level FlightAware ADS-B (EVDA / DGP)
06:39AM 57.9787 26.3667 291° West 469 540 36,000  Level FlightAware ADS-B (EVDA / DGP)
06:40AM 58.0266 26.1216 290° West 471 542 36,000  Level FlightAware ADS-B (EVDA / DGP)
06:41AM 58.0689 25.9030 290° West 472 543 36,000  Level FlightAware ADS-B (EVDA / DGP)
06:42AM 58.1142 25.6661 290° West 474 545 36,000  Level FlightAware ADS-B (EVDA / DGP)
06:43AM 58.1591 25.4280 290° West 474 545 36,000  Level FlightAware ADS-B (EVDA / DGP)
06:44AM 58.2036 25.1899 290° West 472 543 36,000  Level FlightAware ADS-B (EVDA / DGP)
06:45AM 58.2457 24.9614 289° West 471 542 36,000  Level FlightAware ADS-B (EVDA / DGP)
06:46AM 58.2874 24.7323 289° West 468 539 36,000  Level FlightAware ADS-B (EVDA / DGP)
06:47AM 58.3300 24.4949 289° West 466 536 36,000  Level FlightAware ADS-B (EVDA / DGP)
06:48AM 58.3617 24.3167 289° West 463 533 36,000  Level FlightAware ADS-B (EVDA / DGP)
06:48AM 58.3847 24.1856 289° West 463 533 36,000  Level FlightAware ADS-B (EVDA / DGP)
06:52AM 58.3995 24.1015 295° West 461 531 36,000  Level FlightAware ADS-B (EVDA / DGP)
06:57AM 58.6559 22.5714 295° West 457 526 36,000  Level FlightAware ADS-B (ESKB)
07:00AM 58.8256 21.4791 295° West 459 528 36,000  Level FlightAware ADS-B (ESKB)
07:00AM 58.8534 21.2929 286° West 460 529 36,000  Level FlightAware ADS-B (ESKB)
07:01AM 58.8749 21.1477 286° West 456 525 36,000  Level FlightAware ADS-B
07:01AM 58.8918 21.0324 286° West 456 525 36,000  Level FlightAware ADS-B
07:02AM 58.9104 20.9136 287° West 457 526 36,000  Level FlightAware ADS-B
07:03AM 58.9387 20.7389 287° West 457 526 36,000  Level FlightAware ADS-B
07:03AM 58.9585 20.6204 288° West 457 526 36,000  Level FlightAware ADS-B
07:04AM 58.9758 20.5151 288° West 459 528 36,000  Level FlightAware ADS-B (ESKB)
07:04AM 58.9980 20.3796 288° West 454 522 36,000  Level FlightAware ADS-B
07:05AM 59.0131 20.2864 288° West 455 524 36,000  Level FlightAware ADS-B (ESKB)
07:05AM 59.0394 20.1234 287° West 454 522 36,000  Level FlightAware ADS-B (ESKB)
07:06AM 59.0632 19.9737 287° West 453 521 36,000  Level FlightAware ADS-B
07:07AM 59.0880 19.8169 287° West 454 522 36,000  Level FlightAware ADS-B (ESKB)
07:07AM 59.1131 19.6576 287° West 453 521 36,000  Level FlightAware ADS-B (ESKB)
07:08AM 59.1367 19.5052 287° West 453 521 36,000  Level FlightAware ADS-B
07:09AM 59.1593 19.3587 287° West 453 521 36,000  Level FlightAware ADS-B (ESKB)
07:09AM 59.1820 19.2098 287° West 453 521 36,000  Level FlightAware ADS-B
07:10AM 59.1948 19.1248 286° West 452 520 36,000  Level FlightAware ADS-B (ESKB)
07:10AM 59.2199 18.9584 286° West 450 518 36,000  Level FlightAware ADS-B (ESKB)
07:11AM 59.2336 18.8667 286° West 447 514 36,000  Level FlightAware ADS-B
07:11AM 59.2424 18.8069 286° West 448 516 36,000  Level FlightAware ADS-B
07:12AM 59.2594 18.6924 286° West 449 517 36,000  Level FlightAware ADS-B
07:12AM 59.2773 18.5709 286° West 448 516 36,000  Level FlightAware ADS-B
07:13AM 59.3001 18.4150 286° West 449 517 36,000  Level FlightAware ADS-B (ESKB)
07:13AM 59.3216 18.2654 286° West 448 516 36,000  Level FlightAware ADS-B (ESKB)
07:14AM 59.3456 18.0966 286° West 447 514 36,000  Level FlightAware ADS-B (ESKB)
07:15AM 59.3664 17.9494 286° West 448 516 36,000  Level FlightAware ADS-B (ESKB)
07:15AM 59.3858 17.8111 285° West 449 517 36,000  Level FlightAware ADS-B (ESKB)
07:16AM 59.4101 17.6350 285° West 449 517 36,000  Level FlightAware ADS-B
07:17AM 59.4319 17.4765 285° West 448 516 36,000  Level FlightAware ADS-B (ESKB)
07:17AM 59.4506 17.3386 285° West 448 516 36,000  Level FlightAware ADS-B
07:18AM 59.4635 17.2430 285° West 448 516 36,000  Level FlightAware ADS-B (ESKB)
07:18AM 59.4828 17.0987 285° West 448 516 36,000  Level FlightAware ADS-B (ESKB)
07:19AM 59.5043 16.9383 285° West 449 517 36,000  Level FlightAware ADS-B (ESKB)
07:20AM 59.5259 16.7726 284° West 450 518 36,000  Level FlightAware ADS-B (ESKB)
07:20AM 59.5465 16.6145 284° West 450 518 36,000  Level FlightAware ADS-B (ESKB)
07:21AM 59.5669 16.4550 284° West 452 520 36,000  Level FlightAware ADS-B (ESKB)
07:21AM 59.5787 16.3628 284° West 450 518 36,000  Level FlightAware ADS-B
07:22AM 59.5977 16.2120 284° West 452 520 36,000  Level FlightAware ADS-B (ESKB)
07:23AM 59.6152 16.0721 284° West 451 519 36,000  Level FlightAware ADS-B
07:23AM 59.6276 15.9718 284° West 454 522 36,000  Level FlightAware ADS-B (ESKB)
07:24AM 59.6473 15.8110 284° West 456 525 36,000  Level FlightAware ADS-B (ESKB)
07:24AM 59.6664 15.6538 284° West 453 521 36,000  Level FlightAware ADS-B
07:25AM 59.6811 15.5313 283° West 453 521 36,000  Level FlightAware ADS-B
07:26AM 59.7005 15.3677 283° West 452 520 36,000  Level FlightAware ADS-B
07:26AM 59.7152 15.2444 283° West 451 519 36,000  Level FlightAware ADS-B
07:27AM 59.7350 15.0752 283° West 454 522 36,000  Level FlightAware ADS-B
07:27AM 59.7492 14.9515 283° West 455 524 36,000  Level FlightAware ADS-B
07:28AM 59.7700 14.7696 283° West 456 525 36,000  Level FlightAware ADS-B
07:29AM 59.7866 14.6223 283° West 456 525 36,000  Level FlightAware ADS-B
07:29AM 59.8065 14.4429 283° West 457 526 36,000  Level FlightAware ADS-B
07:30AM 59.8199 14.3219 282° West 457 526 36,000  Level FlightAware ADS-B
07:30AM 59.8333 14.1993 282° West 456 525 36,000  Level FlightAware ADS-B
07:31AM 59.8468 14.0750 282° West 456 525 36,000  Level FlightAware ADS-B
07:31AM 59.8616 13.9352 282° West 454 522 36,000  Level FlightAware ADS-B
07:32AM 59.8755 13.8045 282° West 454 522 36,000  Level FlightAware ADS-B
07:33AM 59.8949 13.6187 282° West 455 524 36,000  Level FlightAware ADS-B
07:33AM 59.9078 13.4947 282° West 456 525 36,000  Level FlightAware ADS-B
07:34AM 59.9267 13.3141 282° West 458 527 36,000  Level FlightAware ADS-B
07:34AM 59.9453 13.1921 287° West 460 529 36,000  Level FlightAware ADS-B
07:35AM 59.9712 13.0199 287° West 459 528 36,000  Level FlightAware ADS-B
07:36AM 59.9899 12.8951 287° West 460 529 36,000  Level FlightAware ADS-B
07:36AM 60.0166 12.7157 287° West 459 528 36,000  Level FlightAware ADS-B
07:37AM 60.0348 12.5910 286° West 457 526 36,000  Level FlightAware ADS-B
07:38AM 60.0606 12.4123 286° West 455 524 36,000  Level FlightAware ADS-B
07:38AM 60.0800 12.2770 286° West 457 526 36,000  Level FlightAware ADS-B
07:39AM 60.1057 12.0974 286° West 456 525 36,000  Level FlightAware ADS-B
07:40AM 60.1310 11.9172 286° West 456 525 36,000  Level FlightAware ADS-B
07:40AM 60.1485 11.7915 286° West 457 526 36,000  Level FlightAware ADS-B
07:41AM 60.1720 11.6208 286° West 456 525 36,000  Level FlightAware ADS-B
07:41AM 60.1897 11.4914 285° West 457 526 36,000  Level FlightAware ADS-B
07:42AM 60.2061 11.3703 285° West 456 525 36,000  Level FlightAware ADS-B
07:43AM 60.2351 11.1540 285° West 458 527 36,000  Level FlightAware ADS-B
07:43AM 60.2519 11.0275 285° West 458 527 36,000  Level FlightAware ADS-B
07:44AM 60.2685 10.9017 285° West 459 528 36,000  Level FlightAware ADS-B
07:44AM 60.2845 10.7796 285° West 461 531 36,000  Level FlightAware ADS-B
07:45AM 60.3049 10.6211 285° West 462 532 36,000  Level FlightAware ADS-B
07:45AM 60.3209 10.4965 285° West 462 532 36,000  Level FlightAware ADS-B
07:46AM 60.3471 10.2908 285° West 463 533 36,000  Level FlightAware ADS-B
07:47AM 60.3678 10.1258 284° West 465 535 36,000  Level FlightAware ADS-B
07:47AM 60.3837 9.9971 284° West 467 537 36,000  Level FlightAware ADS-B
07:48AM 60.4064 9.8103 284° West 467 537 36,000  Level FlightAware ADS-B
07:49AM 60.4235 9.6697 284° West 467 537 36,000  Level FlightAware ADS-B
07:49AM 60.4389 9.5419 284° West 465 535 36,000  Level FlightAware ADS-B
07:50AM 60.4550 9.4065 284° West 464 534 36,000  Level FlightAware ADS-B
07:50AM 60.4702 9.2780 284° West 464 534 36,000  Level FlightAware ADS-B
07:51AM 60.4915 9.0966 283° West 460 529 36,000  Level FlightAware ADS-B
07:52AM 60.5067 8.9646 283° West 456 525 36,000  Level FlightAware ADS-B
07:52AM 60.5280 8.7772 283° West 449 517 36,000  Level FlightAware ADS-B
07:53AM 60.5417 8.6549 283° West 451 519 36,000  Level FlightAware ADS-B
07:54AM 60.5620 8.4714 283° West 450 518 36,000  Level FlightAware ADS-B
07:54AM 60.5834 8.2771 283° West 451 519 36,000  Level FlightAware ADS-B
07:55AM 60.6031 8.0965 283° West 451 519 36,000  Level FlightAware ADS-B
07:57AM 60.6538 7.6151 282° West 452 520 36,000  Level FlightAware ADS-B (EGBP)
07:58AM 60.6707 7.4518 282° West 453 521 36,000 -480 Level FlightAware ADS-B (EGBP)
07:58AM 60.6880 7.2816 282° West 456 525 35,400 -900 Descending FlightAware ADS-B (EGBP)
07:59AM 60.7049 7.1136 282° West 459 528 34,800 -780 Descending FlightAware ADS-B (EGBP)
08:00AM 60.7203 6.9565 281° West 461 531 34,400 -540 Descending FlightAware ADS-B (EGBP)
08:00AM 60.7380 6.7752 281° West 464 534 34,100 -300 Descending FlightAware ADS-B (EGBP)
08:01AM 60.7540 6.6104 281° West 456 525 34,000 -120 Descending FlightAware ADS-B (EGBP)
08:02AM 60.7691 6.4504 281° West 458 527 34,000  Level FlightAware ADS-B (EGBP)
08:02AM 60.7860 6.2700 281° West 456 525 34,000  Level FlightAware ADS-B (EGBP)
08:03AM 60.8021 6.0957 281° West 456 525 34,000  Level FlightAware ADS-B (EGBP)
08:04AM 60.8170 5.9311 281° West 457 526 34,000  Level FlightAware ADS-B (EGBP)
08:04AM 60.8327 5.7558 280° West 455 524 34,000  Level FlightAware ADS-B (EGBP)
08:05AM 60.8476 5.5870 280° West 457 526 34,000  Level FlightAware ADS-B (EGBP)
08:08AM 60.8949 5.0210 280° West  Level Estimated
08:09AM 60.9133 4.7926 280° West  Level Estimated
08:10AM 60.9313 4.5639 279° West  Level Estimated
08:11AM 60.9489 4.3350 279° West  Level Estimated
08:12AM 60.9662 4.1058 279° West  Level Estimated
08:13AM 60.9830 3.8764 279° West  Level Estimated
08:14AM 60.9995 3.6467 279° West  Level Estimated
08:15AM 61.0155 3.4168 278° West  Level Estimated
08:16AM 61.0312 3.1867 278° West  Level Estimated
08:17AM 61.0464 2.9563 278° West  Level Estimated
08:18AM 61.0613 2.7257 278° West  Level Estimated
08:19AM 61.0758 2.4950 277° West  Level Estimated
08:20AM 61.0899 2.2640 277° West  Level Estimated
08:21AM 61.1036 2.0328 277° West  Level Estimated
08:22AM 61.1169 1.8014 277° West  Level Estimated
08:23AM 61.1298 1.5698 277° West  Level Estimated
08:24AM 61.1423 1.3380 276° West  Level Estimated
08:25AM 61.1544 1.1061 276° West  Level Estimated
08:26AM 61.1661 0.8740 276° West  Level Estimated
08:27AM 61.1775 0.6417 276° West  Level Estimated
08:28AM 61.1884 0.4092 276° West  Level Estimated
08:29AM 61.1989 0.1766 275° West  Level Estimated
08:30AM 61.2090 -0.0562 275° West  Level Estimated
08:31AM 61.2187 -0.2891 275° West  Level Estimated
08:32AM 61.2281 -0.5222 275° West  Level Estimated
08:33AM 61.2370 -0.7554 275° West  Level Estimated
08:34AM 61.2455 -0.9887 274° West  Level Estimated
08:35AM 61.2536 -1.2221 274° West  Level Estimated
08:36AM 61.2613 -1.4557 274° West  Level Estimated
08:37AM 61.2687 -1.6894 274° West  Level Estimated
08:38AM 61.2756 -1.9232 274° West  Level Estimated
08:39AM 61.2821 -2.1571 273° West  Level Estimated
08:40AM 61.2882 -2.3910 273° West  Level Estimated
08:41AM 61.2939 -2.6251 273° West  Level Estimated
08:42AM 61.2992 -2.8593 273° West  Level Estimated
08:43AM 61.3041 -3.0935 273° West  Level Estimated
08:44AM 61.3086 -3.3278 272° West  Level Estimated
08:45AM 61.3127 -3.5621 272° West  Level Estimated
08:46AM 61.3164 -3.7966 272° West  Level Estimated
08:47AM 61.3197 -4.0310 272° West  Level Estimated
08:48AM 61.3226 -4.2655 272° West  Level Estimated
08:49AM 61.3251 -4.5001 271° West  Level Estimated
08:50AM 61.3272 -4.7347 271° West  Level Estimated
08:51AM 61.3288 -4.9693 271° West  Level Estimated
08:52AM 61.3301 -5.2039 271° West  Level Estimated
08:53AM 61.3310 -5.4386 271° West  Level Estimated
08:54AM 61.3314 -5.6733 270° West  Level Estimated
08:55AM 61.3315 -5.9079 270° West  Level Estimated
08:56AM 61.3311 -6.1426 270° West  Level Estimated
08:57AM 61.3304 -6.3773 270° West  Level Estimated
08:58AM 61.3292 -6.6119 270° West  Level Estimated
08:59AM 61.3276 -6.8465 269° West  Level Estimated
09:00AM 61.3257 -7.0811 269° West  Level Estimated
09:01AM 61.3233 -7.3157 269° West  Level Estimated
09:02AM 61.3205 -7.5502 269° West  Level Estimated
09:03AM 61.3173 -7.7847 268° West  Level Estimated
09:04AM 61.3138 -8.0191 268° West  Level Estimated
09:05AM 61.3098 -8.2535 268° West  Level Estimated
09:06AM 61.3054 -8.4878 268° West  Level Estimated
09:07AM 61.3006 -8.7221 268° West  Level Estimated
09:08AM 61.2954 -8.9563 267° West  Level Estimated
09:09AM 61.2898 -9.1903 267° West  Level Estimated
09:10AM 61.2838 -9.4243 267° West  Level Estimated
09:11AM 61.2774 -9.6582 267° West  Level Estimated
09:12AM 61.2705 -9.8921 267° West  Level Estimated
09:13AM 61.2633 -10.1258 266° West  Level Estimated
09:14AM 61.2557 -10.3594 266° West  Level Estimated
09:15AM 61.2477 -10.5928 266° West  Level Estimated
09:16AM 61.2393 -10.8262 266° West  Level Estimated
09:17AM 61.2305 -11.0594 266° West  Level Estimated
09:18AM 61.2213 -11.2925 265° West  Level Estimated
09:19AM 61.2116 -11.5255 265° West  Level Estimated
09:20AM 61.2016 -11.7583 265° West  Level Estimated
09:21AM 61.1912 -11.9910 265° West  Level Estimated
09:22AM 61.1804 -12.2235 265° West  Level Estimated
09:23AM 61.1692 -12.4558 264° West  Level Estimated
09:24AM 61.1576 -12.6880 264° West  Level Estimated
09:25AM 61.1456 -12.9200 264° West  Level Estimated
09:26AM 61.1332 -13.1518 264° West  Level Estimated
09:27AM 61.1204 -13.3834 264° West  Level Estimated
09:28AM 61.1072 -13.6149 263° West  Level Estimated
09:29AM 61.0936 -13.8461 263° West  Level Estimated
09:30AM 61.0796 -14.0772 263° West  Level Estimated
09:31AM 61.0652 -14.3080 263° West  Level Estimated
09:32AM 61.0504 -14.5387 263° West  Level Estimated
09:33AM 61.0353 -14.7691 262° West  Level Estimated
09:34AM 61.0197 -14.9993 262° West  Level Estimated
09:35AM 61.0037 -15.2292 262° West  Level Estimated
09:36AM 60.9874 -15.4590 262° West  Level Estimated
09:37AM 60.9707 -15.6884 262° West  Level Estimated
09:38AM 60.9536 -15.9177 261° West  Level Estimated
09:39AM 60.9361 -16.1467 261° West  Level Estimated
09:40AM 60.9182 -16.3754 261° West  Level Estimated
09:41AM 60.8999 -16.6039 261° West  Level Estimated
09:42AM 60.8812 -16.8321 261° West  Level Estimated
09:43AM 60.8621 -17.0600 260° West  Level Estimated
09:44AM 60.8427 -17.2877 260° West  Level Estimated
09:45AM 60.8229 -17.5151 260° West  Level Estimated
09:46AM 60.8027 -17.7422 260° West  Level Estimated
09:47AM 60.7821 -17.9690 260° West  Level Estimated
09:48AM 60.7611 -18.1956 259° West  Level Estimated
09:49AM 60.7397 -18.4218 259° West  Level Estimated
09:50AM 60.7180 -18.6477 259° West  Level Estimated
09:51AM 60.6959 -18.8733 259° West  Level Estimated
09:52AM 60.6734 -19.0986 259° West  Level Estimated
09:53AM 60.6505 -19.3236 258° West  Level Estimated
09:54AM 60.6272 -19.5482 258° West  Level Estimated
09:55AM 60.6036 -19.7726 258° West  Level Estimated
09:56AM 60.5796 -19.9966 258° West  Level Estimated
09:57AM 60.5552 -20.2202 258° West  Level Estimated
09:58AM 60.5305 -20.4436 257° West  Level Estimated
09:59AM 60.5054 -20.6666 257° West  Level Estimated
10:00AM 60.4799 -20.8892 257° West  Level Estimated
10:01AM 60.4540 -21.1115 257° West  Level Estimated
10:02AM 60.4278 -21.3334 257° West  Level Estimated
10:03AM 60.4012 -21.5550 256° West  Level Estimated
10:04AM 60.3742 -21.7762 256° West  Level Estimated
10:05AM 60.3469 -21.9970 256° West  Level Estimated
10:06AM 60.3192 -22.2175 256° West  Level Estimated
10:07AM 60.2911 -22.4376 256° West  Level Estimated
10:08AM 60.2627 -22.6573 255° West  Level Estimated
10:09AM 60.2339 -22.8766 255° West  Level Estimated
10:10AM 60.2048 -23.0956 255° West  Level Estimated
10:11AM 60.1752 -23.3141 255° West  Level Estimated
10:12AM 60.1454 -23.5322 255° West  Level Estimated
10:13AM 60.1151 -23.7500 255° West  Level Estimated
10:14AM 60.0846 -23.9674 254° West  Level Estimated
10:15AM 60.0536 -24.1843 254° West  Level Estimated
10:16AM 60.0223 -24.4008 254° West  Level Estimated
10:17AM 59.9907 -24.6169 254° West  Level Estimated
10:18AM 59.9587 -24.8327 254° West  Level Estimated
10:19AM 59.9263 -25.0480 253° West  Level Estimated
10:20AM 59.8936 -25.2628 253° West  Level Estimated
10:21AM 59.8606 -25.4773 253° West  Level Estimated
10:22AM 59.8272 -25.6913 253° West  Level Estimated
10:23AM 59.7934 -25.9049 253° West  Level Estimated
10:24AM 59.7593 -26.1180 252° West  Level Estimated
10:25AM 59.7249 -26.3307 252° West  Level Estimated
10:26AM 59.6901 -26.5430 252° West  Level Estimated
10:27AM 59.6550 -26.7548 252° West  Level Estimated
10:28AM 59.6195 -26.9662 252° West  Level Estimated
10:29AM 59.5837 -27.1772 252° West  Level Estimated
10:30AM 59.5476 -27.3876 251° West  Level Estimated
10:31AM 59.5111 -27.5977 251° West  Level Estimated
10:32AM 59.4743 -27.8073 251° West  Level Estimated
10:33AM 59.4371 -28.0164 251° West  Level Estimated
10:34AM 59.3997 -28.2250 251° West  Level Estimated
10:35AM 59.3619 -28.4332 250° West  Level Estimated
10:36AM 59.3237 -28.6410 250° West  Level Estimated
10:37AM 59.2853 -28.8482 250° West  Level Estimated
10:38AM 59.2464 -29.0550 250° West  Level Estimated
10:39AM 59.2073 -29.2613 250° West  Level Estimated
10:40AM 59.1679 -29.4672 250° West  Level Estimated
10:41AM 59.1281 -29.6726 249° West  Level Estimated
10:42AM 59.0880 -29.8775 249° West  Level Estimated
10:43AM 59.0476 -30.0819 249° West  Level Estimated
10:44AM 59.0068 -30.2858 249° West  Level Estimated
10:45AM 58.9657 -30.4892 249° West  Level Estimated
10:46AM 58.9244 -30.6922 249° West  Level Estimated
10:47AM 58.8826 -30.8947 248° West  Level Estimated
10:48AM 58.8406 -31.0966 248° West  Level Estimated
10:49AM 58.7983 -31.2981 248° West  Level Estimated
10:50AM 58.7557 -31.4991 248° West  Level Estimated
10:51AM 58.7127 -31.6996 248° West  Level Estimated
10:52AM 58.6672 -31.9098 247° West  Level Estimated
10:53AM 58.6214 -32.1194 247° West  Level Estimated
10:54AM 58.5752 -32.3285 247° West  Level Estimated
10:55AM 58.5288 -32.5370 247° West  Level Estimated
10:56AM 58.4819 -32.7449 247° West  Level Estimated
10:57AM 58.4348 -32.9523 247° West  Level Estimated
10:58AM 58.3873 -33.1592 246° West  Level Estimated
10:59AM 58.3394 -33.3655 246° West  Level Estimated
11:00AM 58.2913 -33.5712 246° West  Level Estimated
11:01AM 58.2428 -33.7763 246° West  Level Estimated
11:02AM 58.1940 -33.9809 246° West  Level Estimated
11:03AM 58.1448 -34.1850 246° West  Level Estimated
11:04AM 58.0953 -34.3884 245° Southwest  Level Estimated
11:05AM 58.0455 -34.5914 245° Southwest  Level Estimated
11:06AM 57.9954 -34.7937 245° Southwest  Level Estimated
11:07AM 57.9450 -34.9955 245° Southwest  Level Estimated
11:08AM 57.8942 -35.1967 245° Southwest  Level Estimated
11:09AM 57.8432 -35.3973 245° Southwest  Level Estimated
11:10AM 57.7918 -35.5974 244° Southwest  Level Estimated
11:11AM 57.7401 -35.7968 244° Southwest  Level Estimated
11:12AM 57.6880 -35.9958 244° Southwest  Level Estimated
11:13AM 57.6357 -36.1941 244° Southwest  Level Estimated
11:14AM 57.5831 -36.3919 244° Southwest  Level Estimated
11:15AM 57.5301 -36.5891 243° Southwest  Level Estimated
11:16AM 57.4769 -36.7857 243° Southwest  Level Estimated
11:17AM 57.4233 -36.9818 243° Southwest  Level Estimated
11:18AM 57.3694 -37.1773 243° Southwest  Level Estimated
11:19AM 57.3153 -37.3722 243° Southwest  Level Estimated
11:20AM 57.2608 -37.5665 243° Southwest  Level Estimated
11:21AM 57.2061 -37.7603 243° Southwest  Level Estimated
11:22AM 57.1510 -37.9534 242° Southwest  Level Estimated
11:23AM 57.0956 -38.1461 242° Southwest  Level Estimated
11:24AM 57.0400 -38.3381 242° Southwest  Level Estimated
11:25AM 56.9841 -38.5295 242° Southwest  Level Estimated
11:26AM 56.9278 -38.7204 242° Southwest  Level Estimated
11:27AM 56.8713 -38.9107 242° Southwest  Level Estimated
11:28AM 56.8145 -39.1004 241° Southwest  Level Estimated
11:29AM 56.7574 -39.2896 241° Southwest  Level Estimated
11:30AM 56.7000 -39.4782 241° Southwest  Level Estimated
11:31AM 56.6423 -39.6662 241° Southwest  Level Estimated
11:32AM 56.5844 -39.8536 241° Southwest  Level Estimated
11:33AM 56.5262 -40.0405 241° Southwest  Level Estimated
11:34AM 56.4677 -40.2267 240° Southwest  Level Estimated
11:35AM 56.4089 -40.4124 240° Southwest  Level Estimated
11:36AM 56.3498 -40.5975 240° Southwest  Level Estimated
11:37AM 56.2905 -40.7821 240° Southwest  Level Estimated
11:38AM 56.2309 -40.9661 240° Southwest  Level Estimated
11:39AM 56.1710 -41.1495 240° Southwest  Level Estimated
11:40AM 56.1108 -41.3323 240° Southwest  Level Estimated
11:41AM 56.0504 -41.5146 239° Southwest  Level Estimated
11:42AM 55.9897 -41.6963 239° Southwest  Level Estimated
11:43AM 55.9287 -41.8774 239° Southwest  Level Estimated
11:44AM 55.8675 -42.0579 239° Southwest  Level Estimated
11:45AM 55.8060 -42.2379 239° Southwest  Level Estimated
11:45AM 62.9333 -56.0333 238° Southwest 460 529 34,000  Level Gander Center
11:46AM 55.7411 -42.4265 239° Southwest  Level Estimated
11:46AM 62.8667 -56.3000 241° Southwest 450 518 34,000  Level Gander Center
11:47AM 55.6759 -42.6144 238° Southwest  Level Estimated
11:47AM 62.8167 -56.5667 248° West 460 529 34,000  Level Gander Center
11:48AM 55.6104 -42.8017 238° Southwest  Level Estimated
11:48AM 62.7500 -56.8000 238° Southwest 460 529 34,000  Level Gander Center
11:49AM 55.5446 -42.9883 238° Southwest  Level Estimated
11:49AM 62.7167 -57.0500 254° West 450 518 34,000  Level Gander Center
11:50AM 55.4786 -43.1743 238° Southwest  Level Estimated
11:50AM 62.6500 -57.2833 238° Southwest 460 529 34,000  Level Gander Center
11:51AM 62.6000 -57.5333 247° West 450 518 34,000  Level Gander Center
11:52AM 62.5500 -57.8000 248° West 460 529 34,000  Level Gander Center
11:53AM 62.4833 -58.0167 236° Southwest 460 529 34,000  Level Gander Center
11:54AM 62.4333 -58.2667 247° West 460 529 34,000  Level Gander Center
11:55AM 62.3667 -58.5333 242° Southwest 440 506 34,000  Level Gander Center
11:56AM 62.3333 -58.7500 252° West 450 518 34,000  Level Gander Center
11:57AM 62.2500 -59.0000 234° Southwest 460 529 34,000  Level Gander Center
11:58AM 62.2000 -59.2500 247° West 470 541 34,000  Level Gander Center
11:59AM 62.1333 -59.5167 242° Southwest 460 529 34,000  Level Gander Center
12:00PM 62.0833 -59.7167 242° Southwest 460 529 34,000  Level Gander Center
12:01PM 62.0167 -59.9333 237° Southwest 450 518 34,000  Level Gander Center
12:02PM 61.9167 -60.1500 226° Southwest 450 518 34,000  Level Gander Center
12:03PM 61.8167 -60.3333 221° Southwest 450 518 34,000  Level Gander Center
12:04PM 61.7500 -60.5167 233° Southwest 450 518 34,000  Level Gander Center
12:05PM 61.6500 -60.6833 218° Southwest 450 518 34,000  Level Gander Center
12:06PM 61.5500 -60.8667 221° Southwest 460 529 34,000  Level Gander Center
12:07PM 61.4500 -61.0000 213° Southwest 460 529 34,000  Level Gander Center
12:08PM 61.3500 -61.1833 221° Southwest 450 518 34,000  Level Gander Center
12:09PM 61.2667 -61.3833 229° Southwest 470 541 34,000  Level Gander Center
12:10PM 61.1667 -61.5500 219° Southwest 470 541 34,000  Level Gander Center
12:11PM 61.0667 -61.7000 216° Southwest 450 518 34,000  Level Gander Center
12:12PM 60.9833 -61.8667 224° Southwest 450 518 34,000  Level Gander Center
12:13PM 60.8833 -62.0333 219° Southwest 450 518 34,000  Level Gander Center
12:14PM 60.7833 -62.2000 219° Southwest 450 518 34,000  Level Gander Center
12:15PM 60.7000 -62.3667 224° Southwest 450 518 34,000  Level Gander Center
12:16PM 60.6167 -62.5333 224° Southwest 440 506 34,000  Level Gander Center
12:17PM 60.5500 -62.8000 243° Southwest 460 529 34,000  Level Gander Center
12:18PM 60.5000 -63.0333 247° West 450 518 34,000  Level Gander Center
12:19PM 60.4667 -63.2667 254° West 450 518 34,000  Level Gander Center
12:20PM 60.4167 -63.5000 247° West 440 506 34,000  Level Gander Center
12:21PM 60.3833 -63.7333 254° West 440 506 34,000  Level Gander Center
12:22PM 60.3333 -63.9667 247° West 440 506 34,000  Level Gander Center
12:23PM 60.2833 -64.2000 247° West 440 506 34,000  Level Gander Center
12:24PM 60.1833 -64.3667 220° Southwest 450 518 34,000  Level Gander Center
12:25PM 60.0833 -64.4833 210° Southwest 440 506 34,000  Level Gander Center
12:26PM 60.0000 -64.6500 225° Southwest 440 506 34,000  Level Gander Center
12:27PM 59.8833 -64.8000 213° Southwest 450 518 34,000  Level Gander Center
12:28PM 59.7833 -64.9500 217° Southwest 450 518 34,000  Level Gander Center
12:29PM 59.7000 -65.0833 219° Southwest 450 518 34,000  Level Gander Center
12:30PM 59.6000 -65.2333 217° Southwest 450 518 34,000  Level Gander Center
12:31PM 59.4833 -65.3833 213° Southwest 450 518 34,000  Level Gander Center
12:32PM 59.4000 -65.5000 215° Southwest 440 506 34,000  Level Gander Center
12:33PM 59.3000 -65.6500 217° Southwest 440 506 34,000  Level Gander Center
12:34PM 59.2000 -65.8000 218° Southwest 440 506 34,000  Level Gander Center
12:35PM 59.1000 -65.9500 218° Southwest 450 518 34,100 780 Climbing Gander Center
12:36PM 59.0000 -66.1000 218° Southwest 450 518 35,600 900 Climbing Gander Center
12:37PM 58.9000 -66.2500 218° Southwest 450 518 36,000 180 Climbing Gander Center
12:38PM 58.7833 -66.3667 207° Southwest 440 506 36,000  Level Gander Center
12:39PM 58.7000 -66.5167 223° Southwest 440 506 36,000  Level Gander Center
12:40PM 58.6000 -66.6500 215° Southwest 440 506 36,000  Level Gander Center
12:41PM 58.5000 -66.7667 211° Southwest 440 506 36,000  Level Gander Center
12:42PM 58.4000 -66.9167 218° Southwest 440 506 36,000  Level Gander Center
12:43PM 58.3167 -67.0667 223° Southwest 440 506 36,000  Level Gander Center
12:44PM 58.2000 -67.1667 204° Southwest 440 506 36,000  Level Gander Center
12:45PM 58.1167 -67.3167 224° Southwest 440 506 36,000  Level Gander Center
12:46PM 58.0167 -67.4500 215° Southwest 440 506 36,000  Level Gander Center
12:47PM 57.9000 -67.5667 208° Southwest 440 506 36,000  Level Gander Center
12:48PM 57.8167 -67.7000 220° Southwest 440 506 36,000  Level Gander Center
12:49PM 57.7000 -67.8500 215° Southwest 440 506 36,000  Level Gander Center
12:50PM 57.6167 -67.9500 213° Southwest 430 495 36,000  Level Gander Center
12:51PM 57.5167 -68.0833 216° Southwest 430 495 36,000  Level Gander Center
12:52PM 57.4167 -68.2333 219° Southwest 430 495 36,000  Level Gander Center
12:53PM 57.3333 -68.3333 213° Southwest 430 495 36,000  Level Gander Center
12:54PM 57.2167 -68.4667 212° Southwest 430 495 36,000  Level Gander Center
12:55PM 57.1167 -68.6000 216° Southwest 430 495 36,000  Level Gander Center
12:56PM 57.0167 -68.7167 212° Southwest 430 495 36,000  Level Gander Center
12:57PM 56.9333 -68.8500 221° Southwest 420 483 36,000  Level Gander Center
12:58PM 56.8333 -68.9500 209° Southwest 420 483 36,000  Level Gander Center
12:59PM 56.7333 -69.0833 216° Southwest 420 483 36,000  Level Gander Center
01:00PM 56.6333 -69.1833 209° Southwest 420 483 36,000  Level Gander Center
01:01PM 56.5333 -69.2833 209° Southwest 420 483 36,000  Level Gander Center
01:02PM 56.4500 -69.4167 222° Southwest 420 483 36,000  Level Gander Center
01:03PM 56.3500 -69.5167 209° Southwest 410 472 36,000  Level Gander Center
01:04PM 56.2500 -69.6500 217° Southwest 410 472 36,000  Level Gander Center
01:05PM 56.1500 -69.7500 209° Southwest 410 472 36,000  Level Gander Center
01:06PM 56.0667 -69.8500 214° Southwest 410 472 36,000  Level Gander Center
01:07PM 55.9500 -69.9833 213° Southwest 410 472 36,000  Level Gander Center
01:08PM 55.8667 -70.0833 214° Southwest 410 472 36,000  Level Gander Center
01:09PM 55.7667 -70.2000 213° Southwest 410 472 36,000  Level Gander Center
01:10PM 55.6833 -70.3000 214° Southwest 410 472 36,000  Level Gander Center
01:11PM 55.5667 -70.4000 206° Southwest 410 472 36,000  Level Gander Center
01:12PM 55.4833 -70.5333 222° Southwest 400 460 36,000  Level Gander Center
01:13PM 55.3833 -70.6167 205° Southwest 400 460 36,000  Level Gander Center
01:14PM 55.3000 -70.7167 214° Southwest 400 460 36,000  Level Gander Center
01:15PM 55.2000 -70.8167 210° Southwest 400 460 36,000  Level Gander Center
01:16PM 55.1167 -70.9167 214° Southwest 390 449 36,000  Level Gander Center
01:17PM 55.0167 -71.0333 214° Southwest 390 449 36,000  Level Gander Center
01:18PM 54.9333 -71.1333 215° Southwest 390 449 36,000  Level Gander Center
01:19PM 54.8333 -71.2333 210° Southwest 400 460 36,000  Level Gander Center
01:20PM 54.7500 -71.3167 210° Southwest 390 449 36,000  Level Gander Center
01:21PM 54.6500 -71.4500 218° Southwest 400 460 36,000  Level Gander Center
01:22PM 54.5500 -71.5333 206° Southwest 390 449 36,000  Level Gander Center
01:23PM 54.4667 -71.6333 215° Southwest 390 449 36,000  Level Gander Center
01:24PM 54.3667 -71.7167 206° Southwest 390 449 36,000  Level Gander Center
01:25PM 54.2833 -71.8167 215° Southwest 390 449 36,000  Level Gander Center
01:26PM 54.1833 -71.9333 214° Southwest 390 449 36,000  Level Gander Center
01:27PM 54.1000 -72.0333 215° Southwest 400 460 36,000  Level Gander Center
01:28PM 53.9833 -72.1167 203° Southwest 400 460 36,000  Level Gander Center
01:29PM 53.9000 -72.2000 211° Southwest 400 460 36,000  Level Gander Center
01:30PM 53.8000 -72.3000 211° Southwest 400 460 36,000  Level Gander Center
01:31PM 53.7000 -72.4167 215° Southwest 390 449 36,000  Level Gander Center
01:32PM 53.6167 -72.5000 211° Southwest 390 449 36,000  Level Gander Center
01:33PM 53.5167 -72.5833 206° Southwest 390 449 36,000  Level Gander Center
01:34PM 53.4333 -72.6833 216° Southwest 400 460 36,000  Level Gander Center
01:35PM 53.3333 -72.8000 215° Southwest 400 460 36,000  Level Gander Center
01:36PM 53.2333 -72.8833 207° Southwest 400 460 36,000  Level Gander Center
01:37PM 53.1500 -72.9667 211° Southwest 400 460 36,000  Level Gander Center
01:38PM 53.0500 -73.0500 207° Southwest 400 460 36,000  Level Gander Center
01:39PM 52.9667 -73.1667 220° Southwest 400 460 36,000  Level Gander Center
01:40PM 52.8500 -73.2500 203° Southwest 400 460 36,000  Level Gander Center
01:41PM 52.7500 -73.3333 207° Southwest 400 460 36,000  Level Gander Center
01:42PM 52.6667 -73.4167 211° Southwest 390 449 36,000  Level Gander Center
01:43PM 52.5667 -73.5167 211° Southwest 390 449 36,000  Level Gander Center
01:44PM 52.4833 -73.6000 211° Southwest 390 449 36,000  Level Gander Center
01:45PM 52.3833 -73.6833 207° Southwest 390 449 36,000  Level Gander Center
01:46PM 52.2833 -73.7833 211° Southwest 380 437 36,000  Level Gander Center
01:47PM 52.2000 -73.8667 212° Southwest 380 437 36,000  Level Gander Center
01:48PM 52.1000 -73.9500 207° Southwest 390 449 36,000  Level Gander Center
01:49PM 52.0000 -74.0333 207° Southwest 390 449 36,000  Level Gander Center
01:50PM 51.9333 -74.1333 223° Southwest 380 437 36,000  Level Gander Center
01:51PM 51.8333 -74.2167 207° Southwest 380 437 36,000  Level Gander Center
01:52PM 51.7500 -74.3000 212° Southwest 380 437 36,000  Level Gander Center
01:53PM 51.6500 -74.3667 202° Southwest 380 437 36,000  Level Gander Center
01:54PM 51.5500 -74.4500 207° Southwest 380 437 36,000  Level Gander Center
01:55PM 51.4667 -74.5333 212° Southwest 380 437 36,000  Level Gander Center
01:56PM 51.3667 -74.6167 207° Southwest 380 437 36,000  Level Gander Center
01:57PM 51.2833 -74.7000 212° Southwest 380 437 36,000  Level Gander Center
01:58PM 51.1667 -74.7500 195° South 380 437 36,000  Level Montreal Center
01:59PM 51.0833 -74.8333 212° Southwest 380 437 36,000  Level Montreal Center
02:00PM 51.0000 -74.9167 212° Southwest 380 437 36,000  Level Montreal Center
02:01PM 50.9000 -75.0000 208° Southwest 380 437 36,000  Level Montreal Center
02:02PM 50.8000 -75.0833 208° Southwest 380 437 36,000  Level Montreal Center
02:03PM 50.7167 -75.1667 212° Southwest 380 437 36,000  Level Montreal Center
02:04PM 50.6167 -75.2500 208° Southwest 380 437 36,000  Level Montreal Center
02:05PM 50.5167 -75.3333 208° Southwest 380 437 36,000  Level Montreal Center
02:06PM 50.4333 -75.4167 213° Southwest 380 437 36,000  Level Montreal Center
02:07PM 50.3500 -75.4833 207° Southwest 380 437 36,000  Level Montreal Center
02:08PM 50.2500 -75.5667 208° Southwest 380 437 36,000  Level Montreal Center
02:09PM 50.1667 -75.6500 213° Southwest 380 437 36,000  Level Montreal Center
02:10PM 50.0667 -75.7333 208° Southwest 370 426 36,000  Level Montreal Center
02:11PM 49.9500 -75.8167 205° Southwest 380 437 36,000  Level Montreal Center
02:12PM 49.8667 -75.8833 207° Southwest 380 437 36,000  Level Montreal Center
02:13PM 49.7667 -75.9667 208° Southwest 370 426 36,000  Level Montreal Center
02:14PM 49.6833 -76.0500 213° Southwest 370 426 36,000  Level Montreal Center
02:15PM 49.5833 -76.1000 198° South 370 426 36,000  Level Montreal Center
02:16PM 49.5000 -76.1667 207° Southwest 370 426 36,000  Level Montreal Center
02:17PM 49.4167 -76.2500 213° Southwest 370 426 36,000  Level Montreal Center
02:18PM 49.3167 -76.3500 213° Southwest 370 426 36,000  Level Montreal Center
02:19PM 49.2333 -76.4333 213° Southwest 370 426 36,000  Level Montreal Center
02:20PM 49.1500 -76.4833 201° Southwest 370 426 36,000  Level Montreal Center
02:21PM 49.0500 -76.5833 213° Southwest 370 426 36,000  Level Montreal Center
02:22PM 48.9667 -76.6500 208° Southwest 370 426 36,000  Level Montreal Center
02:23PM 48.8833 -76.7333 213° Southwest 370 426 36,000  Level Montreal Center
02:24PM 48.7833 -76.8000 204° Southwest 370 426 36,000  Level Montreal Center
02:25PM 48.7000 -76.8833 213° Southwest 370 426 36,000  Level Montreal Center
02:26PM 48.6167 -76.9500 208° Southwest 370 426 36,000  Level Montreal Center
02:27PM 48.5000 -77.0333 205° Southwest 370 426 36,000  Level Montreal Center
02:28PM 48.4167 -77.1000 208° Southwest 370 426 36,000  Level Montreal Center
02:29PM 48.3333 -77.1833 214° Southwest 370 426 36,000  Level Montreal Center
02:30PM 48.2333 -77.2500 204° Southwest 370 426 36,000  Level Montreal Center
02:31PM 48.1500 -77.3333 214° Southwest 370 426 36,000  Level Montreal Center
02:32PM 48.0667 -77.4000 208° Southwest 370 426 36,000  Level Montreal Center
02:33PM 47.9667 -77.5000 214° Southwest 370 426 36,000  Level Montreal Center
02:34PM 47.8833 -77.5667 208° Southwest 370 426 36,000  Level Montreal Center
02:35PM 47.8000 -77.6500 214° Southwest 370 426 36,000  Level Montreal Center
02:36PM 47.7000 -77.7167 204° Southwest 370 426 36,000  Level Montreal Center
02:37PM 47.6000 -77.7833 204° Southwest 380 437 36,000  Level Montreal Center
02:38PM 47.5167 -77.8500 208° Southwest 370 426 36,000  Level Montreal Center
02:39PM 47.4167 -77.9333 209° Southwest 370 426 36,000  Level Montreal Center
02:40PM 47.3333 -78.0000 208° Southwest 370 426 36,000  Level Montreal Center
02:41PM 47.2500 -78.0667 209° Southwest 370 426 36,000  Level Montreal Center
02:42PM 47.1500 -78.1333 204° Southwest 370 426 36,000  Level Montreal Center
02:43PM 47.0667 -78.2333 219° Southwest 370 426 36,000  Level Montreal Center
02:44PM 46.9833 -78.3000 209° Southwest 370 426 36,000  Level Montreal Center
02:45PM 46.8667 -78.3333 191° South 380 437 36,000  Level Toronto Center
02:46PM 46.7833 -78.4167 214° Southwest 380 437 36,000  Level Toronto Center
02:47PM 46.7000 -78.4833 209° Southwest 380 437 36,000  Level Toronto Center
02:53PM 46.1798 -78.9055 209° Southwest 380 437 36,000  Level FlightAware ADS-B (CYOW)
02:54PM 46.0324 -79.0171 208° Southwest 375 432 36,000  Level FlightAware ADS-B (CYOW)
02:56PM 45.8605 -79.1464 208° Southwest 377 434 36,000  Level FlightAware ADS-B (CYOW)
02:57PM 45.7667 -79.1833 208° Southwest 380 437 36,000  Level Toronto Center
02:58PM 45.6667 -79.2500 205° Southwest 380 437 36,000  Level Toronto Center
02:59PM 45.5833 -79.3167 209° Southwest 380 437 36,000  Level Toronto Center
03:00PM 45.4833 -79.4000 210° Southwest 380 437 36,000  Level Toronto Center
03:01PM 45.3833 -79.4667 205° Southwest 380 437 36,000  Level Toronto Center
03:02PM 45.2833 -79.5333 205° Southwest 390 449 36,000  Level Toronto Center
03:08PM 44.7598 -79.9534 205° Southwest 378 435 36,000  Level FlightAware ADS-B (CYKF)
03:09PM 44.6897 -80.0036 207° Southwest 379 436 36,000  Level FlightAware ADS-B (CYKF)
03:10PM 44.5984 -80.0689 207° Southwest 384 442 36,000  Level FlightAware ADS-B (CYKF)
03:10PM 44.5331 -80.1155 207° Southwest 382 440 36,000  Level FlightAware ADS-B (CYKF)
03:11PM 44.4777 -80.1548 207° Southwest 375 432 36,000  Level FlightAware ADS-B (CYKF)
03:12PM 44.4666 -80.1627 207° Southwest 377 434 36,000  Level FlightAware ADS-B (CYKF)
03:13PM 44.3182 -80.2677 207° Southwest 385 443 36,000  Level FlightAware ADS-B (CYKF)
03:13PM 44.2826 -80.2928 207° Southwest 386 444 36,000  Level FlightAware ADS-B (CYKF)
03:14PM 44.2081 -80.3451 207° Southwest 386 444 36,000  Level FlightAware ADS-B (CYKF)
03:15PM 44.1258 -80.4027 207° Southwest 386 444 36,000  Level FlightAware ADS-B (CYKF)
03:15PM 44.0620 -80.4474 207° Southwest 387 445 36,000  Level FlightAware ADS-B (CYKF)
03:16PM 44.0093 -80.4841 207° Southwest 387 445 36,000  Level FlightAware ADS-B (CYKF)
03:17PM 43.9323 -80.5376 207° Southwest 386 444 36,000  Level FlightAware ADS-B (CYKF)
03:17PM 43.8691 -80.5816 207° Southwest 387 445 36,000  Level FlightAware ADS-B (CYKF)
03:18PM 43.8043 -80.6265 207° Southwest 386 444 36,000  Level FlightAware ADS-B (CYKF)
03:19PM 43.7475 -80.6657 206° Southwest 386 444 36,000  Level FlightAware ADS-B (CYKF)
03:19PM 43.6757 -80.7152 206° Southwest 387 445 36,000  Level FlightAware ADS-B (CYKF)
03:20PM 43.6351 -80.7431 206° Southwest 387 445 36,000  Level FlightAware ADS-B (CYKF)
03:21PM 43.5839 -80.7783 206° Southwest 388 447 36,000  Level FlightAware ADS-B (CYKF)
03:21PM 43.5252 -80.8185 206° Southwest 391 450 36,000  Level FlightAware ADS-B (CYKF)
03:22PM 43.5252 -80.8185 206° Southwest 392 451 36,000  Level FlightAware ADS-B (CYKF)
03:23PM 43.3235 -80.9561 206° Southwest 396 456 36,000  Level FlightAware ADS-B (CYKF)
03:24PM 43.2223 -81.0247 206° Southwest 396 456 36,000  Level FlightAware ADS-B (CYKF)
03:25PM 43.1559 -81.0696 206° Southwest 397 457 36,000  Level FlightAware ADS-B (CYKF)
03:25PM 43.0967 -81.1094 206° Southwest 399 459 36,000  Level FlightAware ADS-B (CYKF)
03:26PM 43.0282 -81.1555 206° Southwest 399 459 36,000  Level FlightAware ADS-B (CYKF)
03:27PM 42.9663 -81.1942 205° Southwest 402 463 36,000  Level FlightAware ADS-B (CYKF)
03:27PM 42.9354 -81.2128 204° Southwest 402 463 36,000  Level FlightAware ADS-B (CYKF)
03:28PM 42.8337 -81.2752 204° Southwest 403 464 36,000  Level FlightAware ADS-B (CYKF)
03:29PM 42.7557 -81.3233 204° Southwest 403 464 36,000  Level FlightAware ADS-B (CYKF)
03:29PM 42.7153 -81.3481 204° Southwest 404 465 36,000  Level FlightAware ADS-B (CYKF)
03:30PM 42.6585 -81.3829 204° Southwest 405 466 36,000  Level FlightAware ADS-B (CYKF)
03:30PM 42.5923 -81.4235 204° Southwest 406 467 36,000  Level FlightAware ADS-B (CYKF)
03:31PM 42.5433 -81.4534 204° Southwest 407 468 36,000  Level FlightAware ADS-B (CYKF)
03:32PM 42.4525 -81.5089 204° Southwest 403 464 36,000  Level Cleveland Center
03:33PM 42.3489 -81.5714 204° Southwest 404 465 36,000  Level Cleveland Center
03:34PM 42.2439 -81.6353 204° Southwest 405 466 36,000  Level Cleveland Center
03:35PM 42.1400 -81.6983 204° Southwest 406 467 36,000  Level Cleveland Center
03:36PM 42.0350 -81.7606 204° Southwest 406 467 36,000  Level Cleveland Center
03:37PM 41.9306 -81.8231 204° Southwest 407 468 36,000  Level Cleveland Center
03:38PM 41.8092 -81.8956 204° Southwest 407 468 36,000  Level Cleveland Center
03:39PM 41.7033 -81.9581 204° Southwest 411 473 36,000  Level Cleveland Center
03:40PM 41.5975 -82.0208 204° Southwest 411 473 36,000  Level Cleveland Center
03:41PM 41.4908 -82.0828 204° Southwest 413 475 36,000  Level Cleveland Center
03:42PM 41.3847 -82.1461 204° Southwest 414 476 36,000  Level Cleveland Center
03:43PM 41.2711 -82.1914 197° South 425 489 36,000  Level Cleveland Center
03:44PM 41.1358 -82.2414 196° South 430 495 36,000  Level Cleveland Center
03:45PM 41.0178 -82.2833 195° South 432 497 36,000  Level Cleveland Center
03:46PM 40.9003 -82.3250 195° South 433 498 36,000  Level Cleveland Center
03:47PM 40.7828 -82.3669 195° South 433 498 36,000  Level Cleveland Center
03:48PM 40.6650 -82.4081 195° South 433 498 36,000  Level Cleveland Center
03:54PM 39.9593 -82.6012 195° South 462 532 36,000  Level FlightAware ADS-B (KPMH)
03:55PM 39.8553 -82.6086 183° South 465 535 36,000  Level FlightAware ADS-B (KPMH)
03:56PM 39.7479 -82.6158 183° South 466 536 36,000  Level FlightAware ADS-B (KPMH)
03:57PM 39.6366 -82.6232 183° South 461 531 36,000  Level FlightAware ADS-B (KPMH)
03:57PM 39.5724 -82.6275 183° South 460 529 36,000  Level FlightAware ADS-B (KPMH)
03:58PM 39.4761 -82.6340 183° South 459 528 36,000  Level FlightAware ADS-B (KPMH)
03:58PM 39.4103 -82.6384 183° South 460 529 36,000  Level FlightAware ADS-B (KPMH)
03:59PM 39.3211 -82.6444 183° South 460 529 36,000  Level FlightAware ADS-B (KPMH)
04:00PM 39.2523 -82.6490 183° South 461 531 36,000  Level FlightAware ADS-B (KPMH)
04:00PM 39.1574 -82.6554 183° South 462 532 36,000  Level FlightAware ADS-B (KPMH)
04:01PM 39.0397 -82.6632 183° South 462 532 36,000  Level FlightAware ADS-B (KPMH)
04:02PM 38.9418 -82.6696 183° South 461 531 36,000  Level FlightAware ADS-B (KPMH)
04:03PM 38.8447 -82.6760 183° South 461 531 36,000  Level FlightAware ADS-B (KPMH)
04:03PM 38.7779 -82.6804 183° South 461 531 36,000  Level FlightAware ADS-B (KPMH)
04:04PM 38.7142 -82.6845 183° South 460 529 36,000  Level FlightAware ADS-B (KPMH)
04:05PM 38.6521 -82.6886 183° South 461 531 36,000  Level FlightAware ADS-B (KPMH)
04:12PM 37.6544 -82.7767 208° Southwest 437 503 36,000  Level Indianapolis Center
04:13PM 37.8260 -82.7333 180° South  Level FlightAware Approximate
04:13PM 37.5311 -82.8494 205° Southwest 417 480 36,000  Level Indianapolis Center
04:14PM 37.7203 -82.7400 186° South  Level FlightAware Approximate
04:14PM 37.4289 -82.9169 208° Southwest 414 476 36,000  Level Indianapolis Center
04:15PM 37.6189 -82.7709 208° Southwest  Level FlightAware Approximate
04:15PM 37.3269 -82.9833 207° Southwest 414 476 36,000  Level Indianapolis Center
04:16PM 37.5252 -82.8335 208° Southwest  Level FlightAware Approximate
04:17PM 37.4315 -82.8960 208° Southwest  Level FlightAware Approximate
04:17PM 37.2253 -83.0497 207° Southwest 414 476 36,000  Level Indianapolis Center
04:18PM 37.3378 -82.9584 208° Southwest  Level FlightAware Approximate
04:18PM 37.1244 -83.1158 208° Southwest 414 476 36,000  Level Indianapolis Center
04:19PM 37.0053 -83.1931 207° Southwest 415 478 36,000  Level Indianapolis Center
04:20PM 36.9033 -83.2592 207° Southwest 416 479 36,000  Level Indianapolis Center
04:21PM 36.8003 -83.3247 207° Southwest 418 481 36,000  Level Indianapolis Center
04:22PM 36.6961 -83.3914 207° Southwest 420 483 36,000  Level Indianapolis Center
04:23PM 36.5756 -83.4692 207° Southwest 420 483 36,000  Level Indianapolis Center
04:24PM 36.4831 -83.5278 207° Southwest 422 486 36,000  Level Indianapolis Center
04:25PM 36.3572 -83.6081 207° Southwest 421 484 36,000  Level Indianapolis Center
04:26PM 36.2514 -83.6758 207° Southwest 426 490 36,000  Level Indianapolis Center
04:27PM 36.1464 -83.7414 207° Southwest 421 484 36,000  Level Indianapolis Center
04:28PM 36.0664 -83.7947 208° Southwest 425 489 36,000  Level Atlanta Center
04:29PM 35.9622 -83.8617 207° Southwest 425 489 36,000  Level Atlanta Center
04:30PM 35.8642 -83.9056 200° South 425 489 36,000  Level Atlanta Center
04:36PM 35.1091 -84.0870 200° South 456 525 36,000  Level FlightAware ADS-B (KDZJ)
04:36PM 35.0313 -84.1056 191° South 456 525 36,000  Level FlightAware ADS-B (KDZJ)
04:37PM 34.9410 -84.1272 191° South 456 525 36,000  Level FlightAware ADS-B (KDZJ)
04:38PM 34.8717 -84.1437 191° South 459 528 36,000  Level FlightAware ADS-B (KDZJ)
04:38PM 34.7927 -84.1625 191° South 459 528 36,000  Level FlightAware ADS-B (KDZJ)
04:39PM 34.6928 -84.1862 191° South 462 532 36,000  Level FlightAware ADS-B (KDZJ)
04:40PM 34.6074 -84.2064 191° South 463 533 36,000  Level FlightAware ADS-B (KDZJ)
04:40PM 34.5209 -84.2269 191° South 456 525 36,000  Level FlightAware ADS-B (KDZJ)
04:41PM 34.4388 -84.2462 191° South 456 525 36,000  Level FlightAware ADS-B (KDZJ)
04:42PM 34.3546 -84.2661 191° South 463 533 36,000  Level FlightAware ADS-B (KDZJ)
04:42PM 34.2688 -84.2862 191° South 458 527 36,000  Level FlightAware ADS-B (KDZJ)
04:43PM 34.1837 -84.3062 191° South 462 532 36,000  Level FlightAware ADS-B (KDZJ)
04:44PM 34.0976 -84.3264 191° South 473 544 36,000  Level FlightAware ADS-B (KDZJ)
04:44PM 34.0214 -84.3441 191° South 475 547 36,000 480 Level FlightAware ADS-B (KDZJ)
04:46PM 33.8542 -84.3839 191° South 480 552 37,000 420 Climbing Atlanta Center
04:47PM 33.7311 -84.4136 191° South 480 552 37,000  Level Atlanta Center
04:48PM 33.6036 -84.4353 188° South 474 545 37,000  Level Atlanta Center
04:49PM 33.4575 -84.4347 180° South 474 545 37,000  Level Atlanta Center
04:50PM 33.3261 -84.4342 180° South 474 545 37,000  Level Atlanta Center
04:51PM 33.1947 -84.4286 178° South 474 545 37,000  Level Atlanta Center
04:52PM 33.0694 -84.4281 180° South 465 535 37,000  Level Atlanta Center
04:53PM 32.9419 -84.4250 179° South 458 527 37,000  Level Atlanta Center
04:54PM 32.8189 -84.4244 180° South 451 519 37,000  Level Atlanta Center
04:55PM 32.7083 -84.4167 177° South 446 513 37,000  Level Atlanta Center
04:56PM 32.5831 -84.4161 180° South 446 513 37,000  Level Atlanta Center
04:57PM 32.4619 -84.4131 179° South 446 513 37,000  Level Atlanta Center
04:58PM 32.3367 -84.4100 179° South 446 513 37,000  Level Atlanta Center
05:00PM 32.1324 -84.4022 178° South  Level FlightAware Approximate
05:01PM 31.9319 -84.4031 178° South 441 507 37,000  Level Jacksonville Center
05:02PM 31.8089 -84.3986 178° South 441 507 37,000  Level Jacksonville Center
05:07PM 31.1496 -84.3855 178° South 425 489 37,000  Level FlightAware ADS-B (KTLH)
05:09PM 30.9230 -84.3811 179° South 417 480 37,000  Level FlightAware ADS-B (KTLH)
05:10PM 30.8159 -84.3790 179° South 415 478 37,000  Level FlightAware ADS-B (KTLH)
05:11PM 30.7685 -84.3781 179° South 415 478 37,000  Level FlightAware ADS-B (KTLH)
05:11PM 30.6670 -84.3751 179° South 418 481 37,000  Level FlightAware ADS-B (KTLH)
05:12PM 30.5907 -84.3620 172° South 431 496 37,000  Level FlightAware ADS-B (KTLH)
05:13PM 30.4807 -84.3205 162° South 447 514 37,000  Level FlightAware ADS-B (KTLH)
05:14PM 30.3989 -84.2705 152° Southeast 455 524 37,000  Level FlightAware ADS-B (KTLH)
05:15PM 30.3152 -84.2159 151° Southeast 453 521 37,000  Level FlightAware ADS-B (KTLH)
05:15PM 30.2597 -84.1797 151° Southeast 452 520 37,000  Level FlightAware ADS-B (KTLH)
05:16PM 30.1767 -84.1254 151° Southeast 451 519 37,000  Level FlightAware ADS-B (KTLH)
05:17PM 30.0897 -84.0689 151° Southeast 447 514 37,000  Level FlightAware ADS-B (KTLH)
05:17PM 30.0331 -84.0321 151° Southeast 448 516 37,000 -120 Level FlightAware ADS-B (KTLH)
05:18PM 29.9712 -83.9920 151° Southeast 450 518 36,900 -600 Descending FlightAware ADS-B (KTLH)
05:19PM 29.8492 -83.9150 151° Southeast 451 519 36,000 -900 Descending Jacksonville Center
05:20PM 29.7411 -83.8469 151° Southeast 451 519 35,000 -600 Descending Jacksonville Center
05:21PM 29.6289 -83.7742 151° Southeast 451 519 34,900  Descending Jacksonville Center
05:22PM 29.5228 -83.7039 150° Southeast 456 525 35,000  Climbing Jacksonville Center
05:38PM 27.7726 -82.5941 150° Southeast 464 534 35,000  Level FlightAware ADS-B (KMCO)
05:39PM 27.7019 -82.5468 149° Southeast 464 534 35,000  Level FlightAware ADS-B (KMCO)
05:39PM 27.6354 -82.5025 149° Southeast 464 534 35,000  Level FlightAware ADS-B (KMCO)
05:40PM 27.5684 -82.4579 150° Southeast 464 534 35,000  Level FlightAware ADS-B (KMCO)
05:41PM 27.5057 -82.4162 149° Southeast 459 528 35,000  Level FlightAware ADS-B (KMCO)
05:41PM 27.4063 -82.3504 150° Southeast 457 526 35,000  Level FlightAware ADS-B (KMCO)
05:42PM 27.3300 -82.2999 150° Southeast 454 522 35,000  Level FlightAware ADS-B (KMCO)
05:43PM 27.2595 -82.2533 150° Southeast 452 520 35,000  Level FlightAware ADS-B (KMCO)
05:43PM 27.1898 -82.2074 150° Southeast 449 517 35,000  Level FlightAware ADS-B (KMCO)
05:44PM 27.1175 -82.1598 150° Southeast 448 516 35,000  Level FlightAware ADS-B (KMCO)
05:44PM 27.0512 -82.1162 150° Southeast 449 517 35,000  Level FlightAware ADS-B (KMCO)
05:45PM 26.9450 -82.0465 150° Southeast 450 518 35,000  Level FlightAware ADS-B (KMCO)
05:46PM 26.8799 -82.0039 150° Southeast 451 519 35,000  Level FlightAware ADS-B (KMCO)
05:47PM 26.8046 -81.9547 150° Southeast 453 521 35,000  Level FlightAware ADS-B (KMCO)
05:48PM 26.7248 -81.9026 150° Southeast 455 524 35,000  Level FlightAware ADS-B (KMCO)
05:48PM 26.6574 -81.8587 150° Southeast 458 527 35,000  Level FlightAware ADS-B (KMCO)
05:49PM 26.5737 -81.8042 150° Southeast 460 529 35,000  Level FlightAware ADS-B (KMCO)
05:50PM 26.4994 -81.7654 155° Southeast 446 513 35,000  Level FlightAware ADS-B (KMCO)
05:51PM 26.3936 -81.7244 161° South 442 509 35,000  Level FlightAware ADS-B (KMCO)
05:51PM 26.3015 -81.6889 161° South 442 509 35,000  Level FlightAware ADS-B (KMCO)
05:52PM 26.2252 -81.6600 161° South 442 509 35,000  Level FlightAware ADS-B (KMCO)
05:53PM 26.1527 -81.6326 161° South 442 509 35,000  Level FlightAware ADS-B (KMCO)
05:53PM 26.0716 -81.6020 161° South 443 510 35,000  Level FlightAware ADS-B (KMCO)
05:54PM 25.9554 -81.5582 161° South 444 511 35,000  Level FlightAware ADS-B (KMCO)
05:55PM 25.8802 -81.5300 161° South 446 513 35,000  Level FlightAware ADS-B (KMCO)
05:56PM 25.7956 -81.4982 161° South 448 516 35,000  Level FlightAware ADS-B (KMCO)
05:56PM 25.7156 -81.4681 161° South 447 514 35,000  Level FlightAware ADS-B (KMCO)
05:57PM 25.6379 -81.4391 161° South 447 514 35,000  Level FlightAware ADS-B (KMCO)
05:58PM 25.5211 -81.3992 161° South 441 507 35,000  Level Miami Center
05:59PM 25.3892 -81.3506 162° South 447 514 35,000  Level Miami Center
06:00PM 25.2714 -81.3047 161° South 447 514 35,000  Level Miami Center
06:01PM 25.1536 -81.2614 162° South 452 520 35,000  Level Miami Center
06:02PM 25.0339 -81.2183 162° South 452 520 35,000  Level Miami Center
06:03PM 24.9139 -81.1728 161° South 452 520 35,000  Level Miami Center
06:04PM 24.7942 -81.1297 162° South 452 520 35,000  Level Miami Center
06:05PM 24.6756 -81.1119 172° South 447 514 35,000  Level Miami Center
06:06PM 24.5606 -81.1217 184° South 429 494 35,000 -840 Level Miami Center
06:07PM 24.4450 -81.1381 187° South 424 488 33,400 -2,100 Descending Miami Center
06:08PM 24.3358 -81.1572 189° South 419 482 30,800 -2,400 Descending Miami Center
06:09PM 24.2308 -81.1764 189° South 401 461 28,700 -1,860 Descending Miami Center
06:10PM 24.1261 -81.1956 189° South 390 449 27,100 -1,740 Descending Miami Center
06:11PM 24.0267 -81.2308 198° South 384 442 25,300 -1,800 Descending Miami Center
06:13PM 23.8875 -81.3417 225° Southwest  Level FlightAware Approximate
06:20PM 23.3031 -82.0222 228° Southwest  Level FlightAware Approximate
06:21PM 23.2201 -82.1199 226° Southwest  Level FlightAware Approximate
06:22PM 23.1325 -82.2117 212° Southwest  Level FlightAware Approximate
06:23PM 23.0523 -82.3081 231° Southwest  Level FlightAware Approximate
06:24PM 22.9891 -82.4091 223° Southwest  Level Estimated
06:25PM 22.9891 -82.4091 223° Southwest  Level Estimated
06:26PM 22.9891 -82.4091 223° Southwest  Level Estimated
06:27PM 22.9891 -82.4091 223° Southwest  Level Estimated
06:28PM 22.9891 -82.4091 223° Southwest  Level Estimated
06:29PM 22.9891 -82.4091 223° Southwest  Level Estimated
06:30PM 22.9891 -82.4091 223° Southwest  Level Estimated
06:31PM 22.9891 -82.4091 223° Southwest  Level Estimated
06:32PM 22.9891 -82.4091 223° Southwest  Level Estimated
06:33PM 22.9891 -82.4091 223° Southwest  Level Estimated
06:34PM 22.9891 -82.4091 223° Southwest  Level Estimated
06:35PM 22.9891 -82.4091 223° Southwest  Level Estimated
06:36PM 22.9891 -82.4091 223° Southwest  Level Estimated
06:37PM 22.9891 -82.4091 223° Southwest  Level Estimated
06:38PM 22.9891 -82.4091 223° Southwest  Level Estimated
06:39PM 22.9891 -82.4091 223° Southwest  Level Estimated
06:40PM 22.9891 -82.4091 223° Southwest  Level Estimated
06:41PM 22.9891 -82.4091 223° Southwest  Level Estimated
06:42PM 22.9891 -82.4091 223° Southwest  Level Estimated
06:43PM 22.9891 -82.4091 223° Southwest  Level Estimated
06:44PM 22.9891 -82.4091 223° Southwest  Level Estimated
06:45PM 22.9891 -82.4091 223° Southwest  Level Estimated
06:46PM 22.9891 -82.4091 223° Southwest  Level Estimated